Whyteleafe, United Kingdom
Current Conditions -  °F | °C
As of 2:20 PM on Sunday 25 Jan 2015 (Local Time) from EGKB Reporting Station
Broken Clouds Broken Clouds  
Wind Chill:   Ceiling: 2400
Heat Index:   Visibility: 6mi
Dew Point:   Wind: 14mph
Humidity: 71%   Direction: 250°WSW
Pressure: 30.39"   Gusts: NA
Location:  51.31°N, 0.08°W
Report Text: EGKB 251420Z 25012KT 210V280 9999 BKN024 07/02 Q1029
Loading
Personal Weather Stations






























Interactive Weather Map New forecast layout! Learn more

10-Day Weather Forecast

Advertisements
Track Severe Weather on mobile